METAR AND TAF INFORMATION
METAR FOR PAMD
ADDS - METARS form results

(2310 UTC 16 September 2019)
Data provider http://aviationweather.gov/metar/data/
 
METAR text: PAMD 162251Z AUTO 06012KT 10SM BKN031 OVC060 14/10 A2948 RMK AO2 SLP975 T01390100
Conditions at: PAMD (MIDDLETON ISLAND, AK, US) observed 2251 UTC 16 September 2019
Temperature: 13.9°C (57°F)
Dewpoint: 10.0°C (50°F) [RH = 77%]
Pressure (altimeter): 29.48 inches Hg (998.4 mb)
[Sea-level pressure:  997.5 mb]
Winds: from the ENE (60 degrees) at 14 MPH (12 knots; 6.2 m/s)
Visibility: 10 or more miles (16+ km)
Ceiling: 3100 feet AGL
Clouds: broken clouds at 3100 feet AGL
overcast cloud deck at 6000 feet AGL
Weather: automated observation with no human augmentation;
there may or may not be significant weather present at this time

METAR text: PAMD 162249Z AUTO 06011KT 10SM BKN031 OVC060 14/10 A2948 RMK AO2
Conditions at: PAMD (MIDDLETON ISLAND, AK, US) observed 2249 UTC 16 September 2019
Temperature: 14.0°C (57°F)
Dewpoint: 10.0°C (50°F) [RH = 77%]
Pressure (altimeter): 29.48 inches Hg (998.4 mb)
Winds: from the ENE (60 degrees) at 13 MPH (11 knots; 5.7 m/s)
Visibility: 10 or more miles (16+ km)
Ceiling: 3100 feet AGL
Clouds: broken clouds at 3100 feet AGL
overcast cloud deck at 6000 feet AGL
Weather: automated observation with no human augmentation;
there may or may not be significant weather present at this time

METAR text: PAMD 162237Z AUTO 04012G18KT 10SM BKN029 OVC055 14/10 A2948 RMK AO2
Conditions at: PAMD (MIDDLETON ISLAND, AK, US) observed 2237 UTC 16 September 2019
Temperature: 14.0°C (57°F)
Dewpoint: 10.0°C (50°F) [RH = 77%]
Pressure (altimeter): 29.48 inches Hg (998.4 mb)
Winds: from the NE (40 degrees) at 14 MPH (12 knots; 6.2 m/s)
gusting to 21 MPH (18 knots; 9.3 m/s)
Visibility: 10 or more miles (16+ km)
Ceiling: 2900 feet AGL
Clouds: broken clouds at 2900 feet AGL
overcast cloud deck at 5500 feet AGL
Weather: automated observation with no human augmentation;
there may or may not be significant weather present at this time

 AIRPORT MAP

 RUNWAY INFORMATION
Runway 02 Runway length 4178 ft Runway width 115 ft
Runway elevation 100 ft Runway displaced threshold 1020 ft Runway heading 34
Runway 20 Runway length 4178 ft Runway width 115 ft
Runway elevation 100 ft Runway displaced threshold 0 ft Runway heading 214
Runway 13 Runway length 1500 ft Runway width 125 ft
Runway elevation 99 ft Runway displaced threshold 0 ft Runway heading 149
Runway 31 Runway length 1500 ft Runway width 125 ft
Runway elevation 97 ft Runway displaced threshold 0 ft Runway heading 329

 AIRPORT FREQUENCIES

 AIRPORT NEAR NAVIGATION AIDS



Powered by Virtual Airlines Manager [v2.6.2]